New Hampton, IA

1:50 AM CST on February 27, 2015 (GMT -0600)
Oelwein Municipal | Change Station
CLOSE
Current Station
Airport
Location: Oelwein,
Elevation: 1076 ft
Nearby Weather Stations

Elev 1076 ft 42.68 °N, 91.97 °W | Updated 15 minutes ago

Partly Cloudy
Partly Cloudy
-15 °F
Feels Like -31 °F
N
7
Wind Variable Wind from NW

Today
High -- | Low -- °F
--% Chance of Precip.
Yesterday
High -- | Low -- °F
Precip. -- in
6:48 AM 5:55 PM
Waxing Gibbous, 66% visible
Pressure 30.50 in
Visibility 10.0 miles
Clouds Clear
Windchill -31 °F
Dew Point -20 °F
Humidity 77%
Rainfall 0.00 in
Snow Depth Not available.
UV 0 out of 12
Pollen .40 out of 12
Air Quality Not available.
Flu Activity Not available.
METAR KOLZ 270735Z AUTO 31006KT 10SM CLR M26/M29 A3050 RMK AO2

More Conditions Fewer Conditions

Pressure 30.50 in
Visibility 10.0 miles
Clouds Clear
Windchill -31 °F
Dew Point -20 °F
Humidity 77%
Rainfall 0.00 in
Snow Depth Not available.
UV 0 out of 12
Pollen .40 out of 12
Air Quality Not available.
Flu Activity Not available.
METAR KOLZ 270735Z AUTO 31006KT 10SM CLR M26/M29 A3050 RMK AO2

More Conditions Fewer Conditions

10-Day Weather Forecast

Almanac

Astronomy

Feb. 27, 2015 Rise Set
Actual Time
Civil Twilight
Nautical Twilight
Astronomical Twilight
Moon
Length of Visible Light
Length of Day
Tomorrow will be .
, % of the Moon is Illuminated

Today's Extremes

State Highs State Lows

Community

WunderPhotos

Upload Photos

1,800,649 photos uploaded!

WunderBlogs® & News

Nearby

Air Quality

  Air Quality AQ Index Pollutant
Not available.

Snow Depth

Station Depth Elevation

Earthquake Activity

City Distance Mag. Time & Date
Minimum magnitude displayed is 2.5.

Coastal Water Temperatures

Place Temperature

Nearby Weather Stations

Wind Chill Advisory
Statement as of 9:50 PM CST on February 26, 2015

... Wind Chill Advisory in effect until 9 am CST Friday...

The National Weather Service in La Crosse has issued a Wind Chill
Advisory... which is in effect until 9 am CST Friday.

* Expect wind chills to range between 20 and 30 below zero... with
the coldest wind chills occurring around sunrise.

* The cold wind chills will cause frostbite in as little as 30
minutes to exposed skin.

Precautionary/preparedness actions...

A Wind Chill Advisory means that cold air and the wind will
combine to generate low wind chills. Frost bite and hypothermia
can occur if precautions are not taken. Make sure you wear a hat
and gloves.

Baumgardt


Special Statement
Statement as of 3:26 PM CST on February 26, 2015

... Another bitterly cold night expected tonight...

Under clear skies... temperatures will fall into the -10 to
-30 degree range late tonight and early Thursday morning. At
times... a light west wind will produce wind chills of -15 to
-35. Wind chills this low can produce frost bite of exposed skin
in less than 30 minutes.


Boyne